Time;durP1;ratioP1;P1;durP2;ratioP2;P2;SDS_P1;SDS_P2;PMS_P1;PMS_P2;Temp;Humidity;BMP_temperature;BMP_pressure;BME280_temperature;BME280_humidity;BME280_pressure;Samples;Min_cycle;Max_cycle;Signal;HPM_P1;HPM_P2
2022/08/17 00:00:59;;;;;;;28.75;24.80;;;19.30;99.90;;;;;;5130491;27;20559;-80
2022/08/17 00:04:25;;;;;;;30.23;26.27;;;19.20;99.90;;;;;;5130791;27;20041;-81
2022/08/17 00:07:20;;;;;;;26.63;23.85;;;19.20;99.90;;;;;;5094132;28;20072;-82
2022/08/17 00:10:20;;;;;;;31.85;27.65;;;19.20;99.90;;;;;;5083725;28;20044;-81
2022/08/17 00:14:36;;;;;;;31.83;28.38;;;19.20;99.90;;;;;;5069048;28;20038;-81
2022/08/17 00:18:38;;;;;;;30.35;27.13;;;19.20;99.90;;;;;;5120114;28;20080;-83
2022/08/17 00:22:05;;;;;;;31.90;28.80;;;19.10;99.90;;;;;;5067110;28;20400;-81
2022/08/17 00:25:24;;;;;;;33.25;29.77;;;19.00;99.90;;;;;;5071195;28;20040;-83
2022/08/17 00:28:49;;;;;;;37.35;33.08;;;19.00;99.90;;;;;;5135127;27;20062;-83
2022/08/17 00:38:29;;;;;;;35.05;31.40;;;18.90;99.90;;;;;;5126929;27;20038;-80
2022/08/17 00:44:52;;;;;;;34.85;31.25;;;18.80;99.90;;;;;;5067740;28;20048;-83
2022/08/17 00:48:09;;;;;;;33.17;30.08;;;18.80;99.90;;;;;;5039159;28;20193;-83
2022/08/17 00:55:52;;;;;;;76.40;34.40;;;18.70;99.90;;;;;;5072183;28;20044;-82
2022/08/17 00:59:24;;;;;;;52.22;31.40;;;18.70;99.90;;;;;;5017145;28;20040;-80
2022/08/17 01:03:00;;;;;;;96.88;31.48;;;18.70;99.90;;;;;;5017621;28;20041;-79
2022/08/17 01:05:52;;;;;;;249.40;31.50;;;18.70;99.90;;;;;;4999960;28;20095;-82
2022/08/17 01:12:25;;;;;;;187.13;27.88;;;18.60;99.90;;;;;;5001068;28;20519;-80
2022/08/17 01:16:16;;;;;;;75.25;28.17;;;18.60;99.90;;;;;;5001462;28;20118;-80
2022/08/17 01:20:05;;;;;;;124.63;28.92;;;18.60;99.90;;;;;;5005774;28;20134;-80
2022/08/17 01:23:18;;;;;;;133.88;28.95;;;18.50;99.90;;;;;;5045425;28;20108;-80
2022/08/17 01:27:00;;;;;;;76.97;27.73;;;18.40;99.90;;;;;;5053985;28;20059;-82
2022/08/17 01:30:03;;;;;;;86.50;28.50;;;18.50;99.90;;;;;;5051737;28;20060;-81
2022/08/17 01:33:43;;;;;;;46.83;28.13;;;18.40;99.90;;;;;;5050957;28;20044;-82
2022/08/17 01:36:50;;;;;;;41.40;26.42;;;18.50;99.90;;;;;;5056565;28;20047;-80
2022/08/17 01:39:56;;;;;;;76.03;28.95;;;18.40;99.90;;;;;;5099427;27;20055;-81
2022/08/17 01:43:24;;;;;;;47.53;28.42;;;18.40;99.90;;;;;;5127865;27;20590;-81
2022/08/17 01:46:55;;;;;;;110.70;30.23;;;18.40;99.90;;;;;;5109369;28;20058;-81
2022/08/17 01:49:53;;;;;;;172.27;34.88;;;18.30;99.90;;;;;;5109548;27;20042;-79
2022/08/17 01:53:22;;;;;;;79.35;29.88;;;18.60;99.90;;;;;;5092950;27;20070;-80
2022/08/17 01:56:03;;;;;;;82.13;29.83;;;18.30;99.90;;;;;;5113802;27;20078;-81
2022/08/17 01:59:41;;;;;;;68.18;28.38;;;18.30;99.90;;;;;;5051132;28;20055;-82
2022/08/17 02:02:10;;;;;;;63.33;28.20;;;18.30;99.90;;;;;;5097790;27;20170;-80
2022/08/17 02:04:45;;;;;;;55.30;27.33;;;18.20;99.90;;;;;;5095872;28;20036;-82
2022/08/17 02:07:31;;;;;;;47.90;29.00;;;18.20;99.90;;;;;;5110665;27;21057;-82
2022/08/17 02:10:10;;;;;;;31.88;28.52;;;18.30;99.90;;;;;;5102472;27;20076;-82
2022/08/17 02:13:16;;;;;;;31.48;28.25;;;18.20;99.90;;;;;;5129512;27;20051;-83
2022/08/17 02:16:44;;;;;;;68.00;31.40;;;18.30;99.90;;;;;;5112088;27;20043;-82
2022/08/17 02:19:47;;;;;;;36.28;28.85;;;18.20;99.90;;;;;;5123718;27;20094;-80
2022/08/17 02:22:29;;;;;;;32.42;29.00;;;18.20;99.90;;;;;;5115732;27;20051;-80
2022/08/17 02:25:23;;;;;;;45.53;28.95;;;18.30;99.90;;;;;;5124094;27;20465;-80
2022/08/17 02:28:17;;;;;;;50.75;29.08;;;18.30;99.90;;;;;;5126653;27;20515;-80
2022/08/17 02:31:09;;;;;;;57.35;31.75;;;18.20;99.90;;;;;;5106676;27;20031;-82
2022/08/17 02:33:44;;;;;;;46.75;29.15;;;18.20;99.90;;;;;;5109891;27;20047;-81
2022/08/17 02:36:12;;;;;;;43.17;28.15;;;18.20;99.90;;;;;;5099227;27;20144;-80
2022/08/17 02:38:45;;;;;;;37.75;27.70;;;18.30;99.90;;;;;;5097718;27;20126;-81
2022/08/17 02:41:21;;;;;;;30.13;26.90;;;18.20;99.90;;;;;;5105667;27;20042;-81
2022/08/17 02:43:58;;;;;;;39.75;28.33;;;18.40;99.90;;;;;;5124430;27;20046;-82
2022/08/17 02:46:26;;;;;;;29.58;26.55;;;18.60;99.90;;;;;;5110558;27;20038;-80
2022/08/17 02:48:51;;;;;;;31.92;28.48;;;18.10;99.90;;;;;;5122190;27;20041;-81
2022/08/17 02:51:17;;;;;;;30.77;27.77;;;18.10;99.90;;;;;;5111118;27;20042;-82
2022/08/17 02:53:42;;;;;;;31.98;29.05;;;18.00;99.90;;;;;;5107129;27;20042;-80
2022/08/17 02:56:08;;;;;;;36.25;32.67;;;18.20;99.90;;;;;;5122566;27;20044;-80
2022/08/17 02:58:34;;;;;;;40.47;36.08;;;18.10;99.90;;;;;;5121842;27;20137;-80
2022/08/17 03:01:00;;;;;;;33.22;29.95;;;18.10;99.90;;;;;;5106684;27;20031;-80
2022/08/17 03:03:25;;;;;;;30.27;27.45;;;18.20;99.90;;;;;;5123666;27;20500;-80
2022/08/17 03:05:52;;;;;;;30.90;28.02;;;18.10;99.90;;;;;;5125098;27;20032;-82
2022/08/17 03:08:18;;;;;;;30.90;28.00;;;18.00;99.90;;;;;;5129323;27;20118;-81
2022/08/17 03:10:44;;;;;;;31.20;28.40;;;18.00;99.90;;;;;;5124992;27;20038;-80
2022/08/17 03:13:13;;;;;;;29.73;26.75;;;18.00;99.90;;;;;;5124032;27;20039;-80
2022/08/17 03:15:40;;;;;;;32.17;29.02;;;18.10;99.90;;;;;;5120391;27;20035;-80
2022/08/17 03:18:08;;;;;;;29.27;26.48;;;18.00;99.90;;;;;;5125594;27;20100;-81
2022/08/17 03:20:35;;;;;;;28.67;26.02;;;18.10;99.90;;;;;;5122368;27;20099;-80
2022/08/17 03:23:02;;;;;;;29.08;26.27;;;18.00;99.90;;;;;;5128052;27;20175;-80
2022/08/17 03:25:32;;;;;;;29.90;27.10;;;17.90;99.90;;;;;;5106559;27;20046;-82
2022/08/17 03:27:57;;;;;;;29.75;26.85;;;18.00;99.90;;;;;;5123838;27;20036;-80
2022/08/17 03:30:25;;;;;;;27.27;24.88;;;18.40;99.90;;;;;;5120197;27;20049;-80
2022/08/17 03:32:53;;;;;;;25.35;23.30;;;18.40;99.90;;;;;;5120143;27;20039;-80
2022/08/17 03:35:22;;;;;;;26.77;24.45;;;18.00;99.90;;;;;;5121165;27;20049;-80
2022/08/17 03:37:48;;;;;;;28.15;25.65;;;18.00;99.90;;;;;;5123547;27;20027;-82
2022/08/17 03:40:14;;;;;;;27.95;25.55;;;17.90;99.90;;;;;;5124908;27;20114;-80
2022/08/17 03:42:40;;;;;;;29.63;27.02;;;17.90;99.90;;;;;;5120844;27;20042;-80
2022/08/17 03:56:40;;;;;;;32.85;29.40;;;17.90;99.90;;;;;;5105372;27;20104;-80
2022/08/17 03:59:00;;;;;;;32.13;29.17;;;17.80;99.90;;;;;;5124814;27;20096;-80
2022/08/17 04:01:26;;;;;;;31.88;28.77;;;17.90;99.90;;;;;;5117582;27;20054;-83
2022/08/17 04:03:51;;;;;;;31.23;28.25;;;18.10;99.90;;;;;;5119766;27;20108;-82
2022/08/17 04:06:17;;;;;;;31.95;28.73;;;17.90;99.90;;;;;;5122173;27;20657;-80
2022/08/17 04:08:42;;;;;;;31.58;28.58;;;17.90;99.90;;;;;;5120254;27;20054;-80
2022/08/17 04:11:08;;;;;;;31.95;28.95;;;17.90;99.90;;;;;;5119278;27;20170;-82
2022/08/17 04:13:34;;;;;;;32.47;29.35;;;17.90;99.90;;;;;;5122673;27;20595;-81
2022/08/17 04:16:00;;;;;;;35.00;31.10;;;17.80;99.90;;;;;;5121298;27;20040;-81
2022/08/17 04:18:25;;;;;;;32.88;29.40;;;17.80;99.90;;;;;;5120986;27;20034;-80
2022/08/17 04:20:51;;;;;;;31.95;28.92;;;17.80;99.90;;;;;;5106331;28;20495;-81
2022/08/17 04:23:18;;;;;;;28.83;26.33;;;18.10;99.90;;;;;;5122608;27;20156;-81
2022/08/17 04:25:48;;;;;;;32.38;29.42;;;18.30;99.90;;;;;;5119984;27;20405;-80
2022/08/17 04:28:15;;;;;;;32.83;29.48;;;17.80;99.90;;;;;;5110031;28;20040;-83
2022/08/17 04:30:42;;;;;;;34.97;31.38;;;17.90;99.90;;;;;;5123906;27;20054;-80
2022/08/17 04:33:20;;;;;;;33.92;30.55;;;17.90;99.90;;;;;;5126130;27;20039;-80
2022/08/17 04:35:49;;;;;;;35.53;31.98;;;17.90;99.90;;;;;;5121535;27;20390;-82
2022/08/17 04:38:19;;;;;;;35.60;32.10;;;17.90;99.90;;;;;;5125771;28;20063;-85
2022/08/17 04:43:41;;;;;;;36.80;33.25;;;18.00;99.90;;;;;;5130174;27;20039;-85
2022/08/17 04:46:16;;;;;;;34.45;31.35;;;18.20;99.90;;;;;;5131556;27;20035;-84
2022/08/17 04:48:45;;;;;;;34.67;31.52;;;18.00;99.90;;;;;;5129310;27;20046;-83
2022/08/17 04:51:24;;;;;;;37.03;33.25;;;18.20;99.90;;;;;;5126519;27;20031;-81
2022/08/17 04:53:52;;;;;;;35.90;32.50;;;18.00;99.90;;;;;;5127610;27;20426;-80
2022/08/17 04:56:18;;;;;;;34.58;31.38;;;18.40;99.90;;;;;;5126612;27;20397;-80
2022/08/17 05:02:56;;;;;;;37.38;33.50;;;18.10;99.90;;;;;;5126741;27;20100;-80
2022/08/17 05:05:57;;;;;;;34.70;31.30;;;18.00;99.90;;;;;;5107314;27;20039;-81
2022/08/17 05:08:38;;;;;;;34.97;31.58;;;18.10;99.90;;;;;;5109497;27;20047;-81
2022/08/17 05:11:52;;;;;;;36.83;33.05;;;18.10;99.90;;;;;;5090983;27;20047;-81
2022/08/17 05:18:50;;;;;;;34.77;31.23;;;18.20;99.90;;;;;;5107349;28;20035;-80
2022/08/17 05:22:27;;;;;;;33.28;30.08;;;18.10;99.90;;;;;;5108046;28;20067;-81
2022/08/17 05:26:06;;;;;;;36.00;32.70;;;18.20;99.90;;;;;;5110051;28;20039;-83
2022/08/17 05:29:48;;;;;;;39.08;34.85;;;18.20;99.90;;;;;;5109925;28;20516;-84
2022/08/17 05:37:07;;;;;;;46.15;38.53;;;18.30;99.90;;;;;;5075399;28;20059;-83
2022/08/17 05:39:35;;;;;;;39.33;33.83;;;18.30;99.90;;;;;;5079464;28;20054;-83
2022/08/17 05:42:05;;;;;;;37.30;33.45;;;18.30;99.90;;;;;;5065479;27;20038;-81
2022/08/17 05:44:46;;;;;;;41.13;36.63;;;18.40;99.90;;;;;;5131671;27;20095;-86
2022/08/17 05:47:12;;;;;;;36.47;32.78;;;18.40;99.90;;;;;;5127494;27;20158;-82
2022/08/17 05:49:37;;;;;;;36.97;33.03;;;18.40;99.90;;;;;;5105094;27;20075;-83
2022/08/17 05:52:24;;;;;;;37.30;33.60;;;18.50;99.90;;;;;;5105688;27;20046;-82
2022/08/17 05:55:25;;;;;;;37.92;33.08;;;18.50;99.90;;;;;;5138870;27;20031;-83
2022/08/17 05:58:45;;;;;;;37.70;33.83;;;18.60;99.90;;;;;;5128785;27;20036;-81
2022/08/17 06:01:49;;;;;;;36.72;32.83;;;18.60;99.90;;;;;;5070721;28;20040;-82
2022/08/17 06:04:35;;;;;;;37.15;33.35;;;18.70;99.90;;;;;;5086361;27;20047;-80
2022/08/17 06:07:05;;;;;;;;;;;18.70;99.90;;;;;;5119086;27;20132;-80
2022/08/17 06:09:54;;;;;;;36.72;32.95;;;18.90;99.90;;;;;;5120525;27;19934;-81
2022/08/17 06:12:42;;;;;;;39.78;35.60;;;19.10;99.90;;;;;;5123185;27;20073;-81
2022/08/17 06:15:23;;;;;;;38.45;34.65;;;18.80;99.90;;;;;;5118030;27;20858;-83
2022/08/17 06:18:57;;;;;;;38.05;34.10;;;18.80;99.90;;;;;;5116905;27;20050;-85
2022/08/17 06:21:37;;;;;;;39.22;35.08;;;18.80;99.90;;;;;;5034989;28;20055;-82
2022/08/17 06:24:48;;;;;;;;;;;;;;;;;;;;;
2022/08/17 06:28:03;;;;;;;38.03;32.55;;;19.10;99.90;;;;;;5074072;28;20124;-81
2022/08/17 06:31:26;;;;;;;37.20;33.30;;;19.30;99.90;;;;;;5061206;28;20049;-83
2022/08/17 06:41:27;;;;;;;34.85;31.40;;;19.40;99.90;;;;;;5075073;28;20601;-82
2022/08/17 06:44:22;;;;;;;37.40;33.40;;;19.60;99.90;;;;;;5074371;28;20047;-82
2022/08/17 06:46:57;;;;;;;39.85;33.17;;;19.60;99.90;;;;;;5101442;27;20039;-84
2022/08/17 06:49:31;;;;;;;35.83;32.13;;;19.60;99.90;;;;;;5104925;27;20054;-82
2022/08/17 06:52:26;;;;;;;36.92;33.05;;;19.60;99.90;;;;;;5107905;27;20047;-83
2022/08/17 06:55:05;;;;;;;35.28;31.58;;;19.70;99.90;;;;;;5116162;27;20062;-83
2022/08/17 06:57:35;;;;;;;36.92;33.22;;;19.70;99.90;;;;;;5108553;27;20038;-84
2022/08/17 07:00:12;;;;;;;35.88;32.03;;;20.00;99.90;;;;;;5107193;27;20043;-81
2022/08/17 07:03:15;;;;;;;38.55;32.42;;;19.90;99.90;;;;;;5119583;27;20054;-81
2022/08/17 07:06:28;;;;;;;35.53;31.50;;;19.90;99.90;;;;;;5109061;27;20035;-81
2022/08/17 07:10:21;;;;;;;31.92;29.00;;;20.00;99.90;;;;;;5118994;27;20095;-82
2022/08/17 07:17:38;;;;;;;35.22;32.03;;;20.20;99.90;;;;;;5117729;27;20590;-82
2022/08/17 07:20:42;;;;;;;35.45;32.00;;;20.20;99.90;;;;;;5106914;27;20058;-85
2022/08/17 07:23:17;;;;;;;36.67;32.85;;;20.30;99.90;;;;;;5093946;27;20039;-83
2022/08/17 07:25:43;;;;;;;36.17;32.67;;;20.30;99.90;;;;;;5085754;27;20043;-82
2022/08/17 07:28:09;;;;;;;40.38;36.28;;;20.30;99.90;;;;;;5105763;27;20066;-82
2022/08/17 07:30:38;;;;;;;39.20;35.17;;;20.40;99.90;;;;;;5117826;27;20129;-84
2022/08/17 07:33:14;;;;;;;41.60;37.17;;;20.40;99.90;;;;;;5106708;27;20045;-82
2022/08/17 07:35:48;;;;;;;40.30;36.28;;;20.50;99.90;;;;;;5116905;27;20379;-84
2022/08/17 07:38:26;;;;;;;39.35;35.53;;;20.60;99.90;;;;;;5123864;27;20080;-84
2022/08/17 07:41:03;;;;;;;38.72;34.72;;;20.60;99.90;;;;;;5122333;27;20049;-86
2022/08/17 07:43:38;;;;;;;36.88;33.22;;;20.80;99.90;;;;;;5123618;27;20058;-83
2022/08/17 07:49:59;;;;;;;35.75;32.25;;;21.00;99.90;;;;;;5124007;27;20610;-81
2022/08/17 07:53:21;;;;;;;33.53;30.25;;;21.20;99.90;;;;;;5098737;27;20083;-84
2022/08/17 07:55:58;;;;;;;33.22;30.17;;;21.10;99.90;;;;;;5098129;27;20134;-82
2022/08/17 07:58:30;;;;;;;;;;;21.20;99.90;;;;;;5099473;27;20070;-81
2022/08/17 08:01:14;;;;;;;35.25;31.90;;;21.20;99.90;;;;;;5121727;27;19916;-83
2022/08/17 08:12:21;;;;;;;;;;;;;;;;;;;;;
2022/08/17 08:19:24;;;;;;;31.88;28.85;;;21.40;99.90;;;;;;5079141;28;20047;-82
2022/08/17 08:22:43;;;;;;;31.63;28.50;;;21.60;99.90;;;;;;5105557;28;20063;-85
2022/08/17 08:37:32;;;;;;;30.95;27.85;;;22.10;99.90;;;;;;5044534;28;20037;-83
2022/08/17 08:41:18;;;;;;;29.52;26.73;;;22.40;99.90;;;;;;5028747;28;20190;-84
2022/08/17 08:44:02;;;;;;;30.38;27.52;;;22.50;99.90;;;;;;4964329;28;20051;-82
2022/08/17 08:46:47;;;;;;;32.85;29.35;;;22.50;99.90;;;;;;5023301;28;20041;-83
2022/08/17 08:57:02;;;;;;;30.08;27.13;;;23.10;99.90;;;;;;5072458;27;20111;-83
2022/08/17 08:59:56;;;;;;;28.02;25.38;;;23.20;99.90;;;;;;5127464;27;20397;-83
2022/08/17 09:06:35;;;;;;;27.25;24.88;;;23.20;99.90;;;;;;5120399;27;20113;-82
2022/08/17 09:09:53;;;;;;;30.38;27.70;;;23.20;99.90;;;;;;5113396;27;20122;-82
2022/08/17 09:13:05;;;;;;;29.27;26.58;;;23.00;99.90;;;;;;5047642;28;21088;-81
2022/08/17 09:19:29;;;;;;;29.17;26.27;;;23.30;99.90;;;;;;5053917;28;20044;-82
2022/08/17 09:26:35;;;;;;;30.35;27.38;;;23.40;99.90;;;;;;5124743;28;20502;-82
2022/08/17 09:30:17;;;;;;;31.83;28.70;;;23.30;99.90;;;;;;5090960;28;20089;-82
2022/08/17 09:33:11;;;;;;;32.92;29.75;;;22.90;99.90;;;;;;5066981;28;20510;-82
2022/08/17 09:40:10;;;;;;;32.20;29.05;;;22.90;99.90;;;;;;5085489;28;20048;-81
2022/08/17 09:42:49;;;;;;;32.35;29.02;;;22.80;99.90;;;;;;5071710;28;20032;-82
2022/08/17 09:45:28;;;;;;;31.25;28.45;;;22.80;99.90;;;;;;5065758;27;20035;-82
2022/08/17 09:48:22;;;;;;;32.60;29.80;;;22.80;99.90;;;;;;5124533;27;20051;-82
2022/08/17 09:51:02;;;;;;;33.72;30.67;;;22.80;99.90;;;;;;5117333;27;20134;-80
2022/08/17 09:54:17;;;;;;;34.55;31.35;;;22.80;99.90;;;;;;5123014;27;20497;-82
2022/08/17 10:05:15;;;;;;;34.78;31.35;;;22.90;99.90;;;;;;5088207;28;20513;-83
2022/08/17 10:15:03;;;;;;;32.85;29.67;;;23.00;99.90;;;;;;5085211;28;20045;-82
2022/08/17 10:18:16;;;;;;;30.90;27.95;;;23.20;99.90;;;;;;5119356;27;20070;-83
2022/08/17 10:27:47;;;;;;;27.08;24.27;;;23.80;99.90;;;;;;5120909;27;20081;-82
2022/08/17 10:30:27;;;;;;;27.25;24.48;;;23.90;99.90;;;;;;5116278;27;20047;-82
2022/08/17 10:32:59;;;;;;;26.10;23.67;;;24.00;99.90;;;;;;5114757;27;20104;-82
2022/08/17 10:35:33;;;;;;;22.67;20.73;;;24.20;99.90;;;;;;5118982;27;20415;-82
2022/08/17 10:38:20;;;;;;;24.42;21.88;;;24.40;99.90;;;;;;5121623;27;20091;-81
2022/08/17 10:41:41;;;;;;;23.08;20.90;;;24.60;99.90;;;;;;5113665;27;20493;-82
2022/08/17 10:44:25;;;;;;;23.65;21.35;;;24.80;99.90;;;;;;5077150;28;20036;-84
2022/08/17 10:47:08;;;;;;;24.63;22.30;;;24.70;99.90;;;;;;5112399;27;20039;-84
2022/08/17 10:49:36;;;;;;;20.77;18.70;;;24.70;99.90;;;;;;5122226;27;20052;-82
2022/08/17 10:52:26;;;;;;;24.92;22.63;;;25.00;99.90;;;;;;5112517;27;20031;-81
2022/08/17 10:55:00;;;;;;;21.90;19.52;;;25.20;99.90;;;;;;5117332;27;20039;-83
2022/08/17 10:57:30;;;;;;;23.33;21.17;;;25.50;99.90;;;;;;5115232;27;20042;-83
2022/08/17 10:59:57;;;;;;;21.42;17.77;;;25.80;99.90;;;;;;5111843;27;20180;-82
2022/08/17 11:02:51;;;;;;;21.67;15.55;;;26.00;99.90;;;;;;5115385;27;20048;-81
2022/08/17 11:05:39;;;;;;;19.60;17.55;;;26.10;99.90;;;;;;5113001;27;20055;-82
2022/08/17 11:08:32;;;;;;;17.90;16.05;;;26.20;99.90;;;;;;5078485;27;21128;-83
2022/08/17 11:11:06;;;;;;;18.77;17.15;;;26.30;99.90;;;;;;5111924;27;20100;-81
2022/08/17 11:14:27;;;;;;;18.25;16.67;;;26.30;99.90;;;;;;5113625;27;20053;-81
2022/08/17 11:16:52;;;;;;;15.13;13.68;;;26.40;99.90;;;;;;5080346;28;20044;-82
2022/08/17 11:24:09;;;;;;;15.30;13.75;;;26.40;99.90;;;;;;5075764;28;20469;-83
2022/08/17 11:30:39;;;;;;;20.42;18.30;;;25.90;99.90;;;;;;5031271;28;21185;-84
2022/08/17 11:33:33;;;;;;;19.45;17.73;;;25.60;99.90;;;;;;5064057;28;20046;-81
2022/08/17 11:36:20;;;;;;;17.65;15.82;;;25.60;99.90;;;;;;5048815;28;20044;-83
2022/08/17 11:39:01;;;;;;;19.08;17.10;;;25.50;99.90;;;;;;5081051;27;20062;-82
2022/08/17 11:41:47;;;;;;;21.58;19.45;;;25.40;99.90;;;;;;5088723;27;20043;-82
2022/08/17 11:44:43;;;;;;;20.55;18.52;;;25.30;99.90;;;;;;5093802;27;20502;-82
2022/08/17 11:53:38;;;;;;;18.77;17.00;;;25.00;99.90;;;;;;5114305;27;20054;-81
2022/08/17 11:56:27;;;;;;;19.90;18.15;;;24.90;99.90;;;;;;5116220;27;20043;-81
2022/08/17 11:58:53;;;;;;;20.13;18.30;;;24.90;99.90;;;;;;5116222;27;20081;-80
2022/08/17 12:02:26;;;;;;;21.48;19.65;;;24.70;99.90;;;;;;5116158;27;20074;-83
2022/08/17 12:09:46;;;;;;;20.27;18.17;;;24.60;99.90;;;;;;5097818;28;20374;-85
2022/08/17 12:12:21;;;;;;;20.23;18.35;;;24.50;99.90;;;;;;5065309;28;20044;-79
2022/08/17 12:14:53;;;;;;;21.38;19.20;;;24.60;99.90;;;;;;5104607;27;20069;-82
2022/08/17 12:17:25;;;;;;;20.95;18.90;;;24.70;99.90;;;;;;5122450;27;20040;-82
2022/08/17 12:20:11;;;;;;;19.95;18.08;;;24.40;99.90;;;;;;5115551;27;20027;-83
2022/08/17 12:23:30;;;;;;;18.90;17.25;;;24.50;99.90;;;;;;5117194;28;20728;-83
2022/08/17 12:26:18;;;;;;;17.30;15.80;;;24.60;99.90;;;;;;5044053;28;20044;-82
2022/08/17 12:28:48;;;;;;;16.48;15.07;;;24.50;99.90;;;;;;5062385;28;20039;-83
2022/08/17 12:31:25;;;;;;;18.52;15.55;;;24.60;99.90;;;;;;5095006;28;20055;-84
2022/08/17 12:33:52;;;;;;;18.60;16.73;;;24.60;99.90;;;;;;5102232;28;20461;-81
2022/08/17 12:36:27;;;;;;;18.25;15.43;;;24.50;99.90;;;;;;5114953;28;20036;-84
2022/08/17 12:39:05;;;;;;;19.33;14.43;;;24.50;99.90;;;;;;5100705;28;20058;-82
2022/08/17 12:41:40;;;;;;;15.60;13.90;;;24.70;99.90;;;;;;5084511;28;20083;-82
2022/08/17 12:44:13;;;;;;;;;;;24.50;99.90;;;;;;5118418;27;20530;-83
2022/08/17 12:46:52;;;;;;;16.52;13.38;;;24.40;99.90;;;;;;5120535;27;19920;-81
2022/08/17 12:49:34;;;;;;;15.95;14.55;;;24.40;99.90;;;;;;5120050;27;20492;-85
2022/08/17 12:52:27;;;;;;;16.13;13.18;;;24.30;99.90;;;;;;5110229;28;20050;-82
2022/08/17 12:55:21;;;;;;;20.30;15.05;;;24.10;99.90;;;;;;5128256;27;20043;-82
2022/08/17 12:57:59;;;;;;;15.13;13.50;;;24.30;99.90;;;;;;5107890;28;20068;-82
2022/08/17 13:00:40;;;;;;;13.98;12.60;;;24.30;99.90;;;;;;5125069;27;20036;-83
2022/08/17 13:03:48;;;;;;;13.77;11.75;;;24.10;99.90;;;;;;5133071;27;20076;-83
2022/08/17 13:07:00;;;;;;;13.05;11.73;;;24.20;99.90;;;;;;5115914;28;20038;-83
2022/08/17 13:09:29;;;;;;;13.55;11.20;;;24.20;99.90;;;;;;5101064;27;20047;-83
2022/08/17 13:12:25;;;;;;;11.75;10.75;;;24.10;99.90;;;;;;5113997;27;20056;-83
2022/08/17 13:15:50;;;;;;;20.02;12.23;;;24.20;99.90;;;;;;5114458;27;20051;-83
2022/08/17 13:18:41;;;;;;;12.13;9.68;;;24.20;99.90;;;;;;5115702;27;20078;-82
2022/08/17 13:21:17;;;;;;;13.45;10.07;;;24.30;99.90;;;;;;5116850;27;21794;-82
2022/08/17 13:24:00;;;;;;;13.25;10.48;;;24.30;99.90;;;;;;5103568;27;20047;-81
2022/08/17 13:26:44;;;;;;;9.40;8.63;;;24.30;99.90;;;;;;5112917;27;20122;-80
2022/08/17 13:32:53;;;;;;;14.32;11.30;;;24.20;99.90;;;;;;5119476;27;20119;-83
2022/08/17 13:35:27;;;;;;;12.57;11.25;;;24.10;99.90;;;;;;5114044;27;20036;-83
2022/08/17 13:38:45;;;;;;;;;;;;;;;;;;;;;
2022/08/17 13:41:53;;;;;;;10.98;9.85;;;24.00;99.90;;;;;;5079006;27;20104;-83
2022/08/17 13:48:42;;;;;;;13.50;10.40;;;23.90;99.90;;;;;;5028352;28;20094;-83
2022/08/17 13:51:24;;;;;;;16.02;10.77;;;23.80;99.90;;;;;;5017844;28;20041;-82
2022/08/17 13:54:49;;;;;;;12.93;11.57;;;23.70;99.90;;;;;;5092211;27;20039;-82
2022/08/17 13:58:41;;;;;;;14.43;12.20;;;23.70;99.90;;;;;;5080774;28;20154;-83
2022/08/17 14:01:59;;;;;;;15.57;13.27;;;23.60;99.90;;;;;;5013857;28;20048;-83
2022/08/17 14:04:49;;;;;;;13.02;11.73;;;23.30;99.90;;;;;;5022994;28;20132;-83
2022/08/17 14:07:36;;;;;;;14.90;10.98;;;23.40;99.90;;;;;;5027773;28;20236;-83
2022/08/17 14:10:11;;;;;;;13.07;11.90;;;23.20;99.90;;;;;;5034096;28;20513;-81
2022/08/17 14:12:40;;;;;;;16.80;11.40;;;23.10;99.90;;;;;;5053227;28;20046;-81
2022/08/17 14:15:07;;;;;;;13.02;11.63;;;23.10;99.90;;;;;;5041745;28;20060;-82
2022/08/17 14:17:32;;;;;;;14.13;11.52;;;23.00;99.90;;;;;;5076425;28;20044;-82
2022/08/17 14:19:58;;;;;;;16.83;13.40;;;23.00;99.90;;;;;;5061834;28;20040;-83
2022/08/17 14:22:33;;;;;;;31.50;17.83;;;22.90;99.90;;;;;;5056424;28;20522;-84
2022/08/17 14:25:02;;;;;;;23.67;18.25;;;22.90;99.90;;;;;;5076950;27;20035;-83
2022/08/17 14:27:32;;;;;;;19.77;17.58;;;22.80;99.90;;;;;;5093632;27;20404;-83
2022/08/17 14:37:31;;;;;;;18.23;16.30;;;22.70;99.90;;;;;;5114396;27;20096;-83
2022/08/17 14:39:59;;;;;;;18.33;16.10;;;22.60;99.90;;;;;;5110966;27;20126;-83
2022/08/17 14:42:28;;;;;;;21.50;17.92;;;22.80;99.90;;;;;;5114724;27;20043;-83
2022/08/17 14:44:55;;;;;;;19.13;17.23;;;22.60;99.90;;;;;;5114492;27;20039;-81
2022/08/17 14:47:22;;;;;;;18.27;16.58;;;22.60;99.90;;;;;;5112665;27;20087;-83
2022/08/17 14:52:55;;;;;;;17.40;15.80;;;22.60;99.90;;;;;;5078237;28;20067;-83
2022/08/17 14:55:21;;;;;;;19.05;17.02;;;22.50;99.90;;;;;;5035764;28;20076;-83
2022/08/17 15:09:19;;;;;;;21.15;19.02;;;22.30;99.90;;;;;;5094410;27;20229;-83
2022/08/17 15:12:39;;;;;;;21.02;18.85;;;22.20;99.90;;;;;;5027312;28;20703;-84
2022/08/17 15:16:04;;;;;;;20.65;18.55;;;22.10;99.90;;;;;;5079290;27;20051;-83
2022/08/17 15:23:15;;;;;;;;;;;;;;;;;;;;;
2022/08/17 15:26:09;;;;;;;;;;;;;;;;;;;;;
2022/08/17 15:28:38;;;;;;;19.10;17.27;;;21.80;99.90;;;;;;5084807;27;20052;-82
2022/08/17 15:31:14;;;;;;;19.95;18.02;;;21.50;99.90;;;;;;5101774;27;20039;-83
2022/08/17 15:33:39;;;;;;;19.77;17.73;;;22.00;99.90;;;;;;5090965;27;20054;-84
2022/08/17 15:36:28;;;;;;;20.20;18.35;;;21.40;99.90;;;;;;5094643;27;20043;-86
2022/08/17 15:39:04;;;;;;;;;;;;;;;;;;;;;
2022/08/17 15:42:15;;;;;;;;;;;;;;;;;;;;;
2022/08/17 15:45:09;;;;;;;21.02;19.13;;;21.20;99.90;;;;;;5127957;27;20097;-87
2022/08/17 15:48:06;;;;;;;22.52;20.20;;;21.10;99.90;;;;;;5109628;27;20782;-86
2022/08/17 15:50:45;;;;;;;;;;;;;;;;;;;;;
2022/08/17 15:54:02;;;;;;;;;;;;;;;;;;;;;
2022/08/17 15:56:57;;;;;;;25.48;20.35;;;21.20;99.90;;;;;;5096122;27;20046;-83
2022/08/17 15:59:41;;;;;;;24.27;22.05;;;21.10;99.90;;;;;;5095688;27;20043;-82
2022/08/17 16:02:30;;;;;;;24.17;21.83;;;21.10;99.90;;;;;;5098305;27;20078;-83
2022/08/17 16:08:30;;;;;;;23.08;20.85;;;21.00;99.90;;;;;;5075384;27;20042;-85
2022/08/17 16:11:09;;;;;;;;;;;;;;;;;;;;;
2022/08/17 16:16:59;;;;;;;24.05;21.67;;;20.90;99.90;;;;;;4150960;26;20912;-84
2022/08/17 16:35:15;;;;;;;27.10;19.92;;;20.70;99.90;;;;;;4935031;28;20524;-85
2022/08/17 17:39:51;;;;;;;21.20;18.25;;;19.80;99.90;;;;;;5013199;28;20040;-83
2022/08/17 17:43:06;;;;;;;;;;;;;;;;;;;;;
2022/08/17 17:46:01;;;;;;;;;;;;;;;;;;;;;
2022/08/17 17:52:37;;;;;;;16.45;14.95;;;19.90;99.90;;;;;;4917704;28;20099;-84
2022/08/17 18:09:17;;;;;;;;;;;;;;;;;;;;;
2022/08/17 18:19:38;;;;;;;12.25;10.95;;;19.60;99.90;;;;;;4844542;29;20508;-81
2022/08/17 18:22:24;;;;;;;12.38;10.98;;;19.50;99.90;;;;;;4846240;29;20068;-82
2022/08/17 18:25:44;;;;;;;;;;;;;;;;;;;;;
2022/08/17 18:28:42;;;;;;;14.18;10.48;;;19.80;99.90;;;;;;5003315;28;21401;-86
2022/08/17 18:31:37;;;;;;;23.05;10.55;;;19.40;99.90;;;;;;4988950;28;20108;-84
2022/08/17 18:42:25;;;;;;;9.70;8.68;;;19.60;99.90;;;;;;4961139;28;20053;-85
2022/08/17 18:44:54;;;;;;;11.05;8.70;;;19.60;99.90;;;;;;4940374;28;20073;-83
2022/08/17 19:02:23;;;;;;;8.20;7.40;;;19.40;99.90;;;;;;4994581;28;20345;-84
2022/08/17 19:04:52;;;;;;;8.10;6.97;;;19.50;99.90;;;;;;5002131;28;20053;-83
2022/08/17 19:07:23;;;;;;;9.35;7.13;;;19.50;99.90;;;;;;4999080;28;20056;-84
2022/08/17 19:10:15;;;;;;;9.40;7.75;;;19.40;99.90;;;;;;5002551;28;20349;-84
2022/08/17 19:12:50;;;;;;;8.38;7.47;;;19.40;99.90;;;;;;5005737;28;20041;-82
2022/08/17 19:15:25;;;;;;;8.65;7.40;;;19.40;99.90;;;;;;4999747;28;20044;-84
2022/08/17 19:18:07;;;;;;;7.25;6.65;;;19.40;99.90;;;;;;4999706;28;20046;-83
2022/08/17 19:20:43;;;;;;;8.00;7.18;;;19.40;99.90;;;;;;5015599;28;20121;-84
2022/08/17 19:23:23;;;;;;;10.60;8.13;;;19.30;99.90;;;;;;5002014;28;20037;-84
2022/08/17 19:25:53;;;;;;;7.72;6.90;;;19.30;99.90;;;;;;5016225;28;20094;-83
2022/08/17 19:28:23;;;;;;;9.57;7.57;;;19.30;99.90;;;;;;5018853;28;20072;-83
2022/08/17 19:31:02;;;;;;;8.15;7.18;;;19.30;99.90;;;;;;4997718;28;20081;-83
2022/08/17 19:33:30;;;;;;;7.57;6.97;;;19.30;99.90;;;;;;5009900;28;20060;-81
2022/08/17 19:36:06;;;;;;;12.18;7.47;;;19.20;99.90;;;;;;4995824;28;20094;-83
2022/08/17 19:38:49;;;;;;;9.63;7.00;;;19.30;99.90;;;;;;4994705;28;20045;-83
2022/08/17 19:41:28;;;;;;;8.85;6.10;;;19.20;99.90;;;;;;5012835;28;20034;-82
2022/08/17 19:44:21;;;;;;;8.13;7.03;;;19.20;99.90;;;;;;4995799;28;20104;-83
2022/08/17 19:47:12;;;;;;;6.80;6.10;;;19.20;99.90;;;;;;4998625;28;20037;-82